West Menlo Park, California
Current Conditions -  °F | °C
As of 8:47 PM on Saturday 25 Oct 2014 (Local Time) from KPAO Reporting Station
Scattered Clouds Scattered Clouds  
Wind Chill: 61°   Ceiling: Unl
Heat Index: 61°   Visibility: 10mi
Dew Point: 55°   Wind: 6mph
Humidity: 82%   Direction: NA
Pressure: 30.11"   Gusts: NA
Location:  37.4782°N, 122.181°W
Report Text: KPAO 260347Z VRB05KT 10SM SCT045 16/13 A3011
Loading
Personal Weather Stations






























Interactive Weather Map
Tropical Storm Tracking
New forecast layout! Learn more

10-Day Weather Forecast

Advertisements
Track Severe Weather on mobile